Terminal Aerodrome Forecast
Issued by NWS Tampa Bay Area, FL

Home | Current Version | Previous Version | Text Only | Print | Product List | Glossary On
Versions: 1 2 3 4 5 6 7 8 9 10 11 12 13 14 15 16 17 18 19 20 21 22 23
000
FTUS42 KTBW 230800 AAA
TAFSRQ
TAF AMD
KSRQ 230826Z 2308/2406 30003KT P6SM SCT015 SCT250
      TEMPO 2308/2312 BKN015
     FM231400 28004KT P6SM FEW250
     FM231800 29010KT P6SM FEW250
     FM240200 30004KT P6SM SKC=

USA.gov is the U.S. government's official web portal to all federal, state and local government web resources and services.